Howell, South Dakota
Current Conditions -  °F | °C
As of 2:53 PM on Friday 31 Oct 2014 (Local Time) from KPIR Reporting Station
Clear Clear  
Wind Chill: 30°   Ceiling: Unl
Heat Index: 40°   Visibility: 10mi
Dew Point: 13°   Wind: 21mph
Humidity: 33%   Direction: 140°SE
Pressure: 30.36"   Gusts: NA
Location:  44.5493°N, 99.483°W
Report Text: KPIR 311953Z AUTO 14018KT 10SM CLR 04/M11 A3036 RMK AO2 SLP302 T00441106
Loading
Personal Weather Stations






























Interactive Weather Map
Tropical Storm Tracking
New forecast layout! Learn more

10-Day Weather Forecast

Advertisements
Track Severe Weather on mobile